Time;durP1;ratioP1;P1;durP2;ratioP2;P2;SDS_P1;SDS_P2;PMS_P1;PMS_P2;Temp;Humidity;BMP_temperature;BMP_pressure;BME280_temperature;BME280_humidity;BME280_pressure;Samples;Min_cycle;Max_cycle;Signal;HPM_P1;HPM_P2
2021/12/15 00:02:20;;;;;;;22.70;16.60;;;9.90;99.90;;;;;;5010222;28;20430;-70
2021/12/15 00:04:50;;;;;;;24.10;16.10;;;9.90;99.90;;;;;;5009637;28;20426;-70
2021/12/15 00:07:17;;;;;;;25.77;17.87;;;9.90;99.90;;;;;;5008993;28;20467;-69
2021/12/15 00:09:43;;;;;;;24.47;17.30;;;9.90;99.90;;;;;;5008123;28;20986;-70
2021/12/15 00:12:10;;;;;;;22.30;15.73;;;9.90;99.90;;;;;;5009180;28;20429;-70
2021/12/15 00:14:35;;;;;;;22.77;17.77;;;9.90;99.90;;;;;;5008977;28;20191;-71
2021/12/15 00:17:01;;;;;;;23.40;16.07;;;9.90;99.90;;;;;;5009788;28;20516;-71
2021/12/15 00:19:27;;;;;;;25.13;18.30;;;9.90;99.90;;;;;;5012834;28;20207;-71
2021/12/15 00:21:55;;;;;;;25.77;16.97;;;9.90;99.90;;;;;;5011954;28;20421;-70
2021/12/15 00:24:20;;;;;;;26.50;16.63;;;9.90;99.90;;;;;;5012506;28;20417;-70
2021/12/15 00:26:46;;;;;;;25.47;17.40;;;9.80;99.90;;;;;;5011635;28;20938;-70
2021/12/15 00:29:12;;;;;;;26.17;17.57;;;9.80;99.90;;;;;;5012582;28;20579;-72
2021/12/15 00:31:38;;;;;;;21.87;16.20;;;9.90;99.90;;;;;;5012507;28;20214;-70
2021/12/15 00:34:07;;;;;;;22.97;16.80;;;9.80;99.90;;;;;;5012073;28;20473;-70
2021/12/15 00:36:33;;;;;;;22.83;16.87;;;9.80;99.90;;;;;;5012146;28;20175;-71
2021/12/15 00:38:58;;;;;;;26.33;17.47;;;9.80;99.90;;;;;;5011449;28;20465;-70
2021/12/15 00:41:24;;;;;;;21.80;16.17;;;9.80;99.90;;;;;;5010589;28;20433;-70
2021/12/15 00:43:50;;;;;;;20.87;15.17;;;9.70;99.90;;;;;;5011954;28;20175;-70
2021/12/15 00:46:15;;;;;;;24.60;16.43;;;9.60;99.90;;;;;;5011809;28;20200;-70
2021/12/15 00:48:42;;;;;;;27.90;16.77;;;9.60;99.90;;;;;;5011913;28;20493;-71
2021/12/15 00:51:08;;;;;;;21.93;16.07;;;9.60;99.90;;;;;;5034944;23;20318;-70
2021/12/15 00:53:33;;;;;;;23.90;17.03;;;9.60;99.90;;;;;;5005311;28;21022;-69
2021/12/15 00:55:59;;;;;;;22.50;15.90;;;9.60;99.90;;;;;;4993541;28;20782;-70
2021/12/15 00:58:26;;;;;;;24.27;16.50;;;9.60;99.90;;;;;;4993785;28;20172;-70
2021/12/15 01:00:55;;;;;;;22.33;16.37;;;9.50;99.90;;;;;;4997704;28;20182;-69
2021/12/15 01:03:21;;;;;;;22.57;16.77;;;9.60;99.90;;;;;;5013128;28;21004;-70
2021/12/15 01:05:50;;;;;;;23.40;16.10;;;9.60;99.90;;;;;;5013021;28;20410;-71
2021/12/15 01:08:22;;;;;;;24.33;16.13;;;9.60;99.90;;;;;;5013015;28;20261;-70
2021/12/15 01:11:04;;;;;;;21.10;15.70;;;9.60;99.90;;;;;;5012848;28;20411;-70
2021/12/15 01:21:49;;;;;;;18.87;14.10;;;9.60;99.90;;;;;;5006327;28;20498;-71
2021/12/15 01:24:15;;;;;;;19.67;15.13;;;9.60;99.90;;;;;;5011738;28;20430;-70
2021/12/15 01:26:42;;;;;;;18.53;14.63;;;9.70;99.90;;;;;;5012447;28;20899;-70
2021/12/15 01:29:07;;;;;;;20.87;15.23;;;9.70;99.90;;;;;;5014372;28;20170;-71
2021/12/15 01:31:33;;;;;;;23.63;15.50;;;9.70;99.90;;;;;;5013133;28;20422;-70
2021/12/15 01:33:59;;;;;;;22.60;15.90;;;9.60;99.90;;;;;;5012771;28;20179;-70
2021/12/15 01:36:25;;;;;;;20.27;15.30;;;9.60;99.90;;;;;;5012756;28;20187;-69
2021/12/15 01:38:50;;;;;;;19.60;15.70;;;9.60;99.90;;;;;;5012515;28;20556;-70
2021/12/15 01:41:22;;;;;;;25.40;18.47;;;9.60;99.90;;;;;;5014604;28;20191;-70
2021/12/15 01:46:56;;;;;;;25.87;15.67;;;9.50;99.90;;;;;;5013805;28;20409;-70
2021/12/15 01:49:49;;;;;;;20.67;15.20;;;9.40;99.90;;;;;;5012732;28;20422;-70
2021/12/15 01:52:30;;;;;;;21.43;15.63;;;9.40;99.90;;;;;;5013316;28;20484;-70
2021/12/15 01:55:12;;;;;;;25.33;16.50;;;9.40;99.90;;;;;;5012837;28;20429;-70
2021/12/15 01:57:39;;;;;;;21.53;16.77;;;9.50;99.90;;;;;;5013142;28;20453;-69
2021/12/15 02:00:29;;;;;;;20.67;15.23;;;9.50;99.90;;;;;;5013189;28;20472;-70
2021/12/15 02:02:57;;;;;;;21.00;14.83;;;9.60;99.90;;;;;;5013150;28;20536;-70
2021/12/15 02:05:26;;;;;;;23.03;15.80;;;9.50;99.90;;;;;;5012664;28;20430;-69
2021/12/15 02:07:53;;;;;;;17.40;14.30;;;9.50;99.90;;;;;;4992659;28;20422;-70
2021/12/15 02:10:21;;;;;;;21.67;15.87;;;9.40;99.90;;;;;;4993106;28;20415;-69
2021/12/15 02:12:47;;;;;;;23.20;15.10;;;9.40;99.90;;;;;;4993223;28;20497;-71
2021/12/15 02:15:18;;;;;;;18.77;14.47;;;9.40;99.90;;;;;;4994663;28;20425;-70
2021/12/15 02:17:46;;;;;;;19.17;13.70;;;9.50;99.90;;;;;;5011813;28;20405;-69
2021/12/15 02:20:14;;;;;;;19.50;15.37;;;9.60;99.90;;;;;;5012619;28;20496;-70
2021/12/15 02:22:41;;;;;;;20.13;15.10;;;9.70;99.90;;;;;;5012648;28;20466;-69
2021/12/15 02:25:11;;;;;;;21.07;14.63;;;9.60;99.90;;;;;;5012265;28;20810;-71
2021/12/15 02:27:37;;;;;;;20.83;14.10;;;9.70;99.90;;;;;;5011895;28;20437;-69
2021/12/15 02:30:39;;;;;;;19.50;14.03;;;9.70;99.90;;;;;;5012561;28;20421;-69
2021/12/15 02:38:41;;;;;;;21.33;13.87;;;9.60;99.90;;;;;;5013934;28;21007;-70
2021/12/15 02:41:19;;;;;;;20.50;14.37;;;9.60;99.90;;;;;;5015319;28;20430;-68
2021/12/15 02:43:53;;;;;;;20.17;13.90;;;9.60;99.90;;;;;;5015654;28;20797;-69
2021/12/15 02:46:20;;;;;;;18.83;14.50;;;9.60;99.90;;;;;;5015295;28;20409;-69
2021/12/15 02:48:46;;;;;;;21.30;14.70;;;9.70;99.90;;;;;;5015292;28;20544;-69
2021/12/15 02:51:12;;;;;;;22.93;15.83;;;9.70;99.90;;;;;;5014715;28;20429;-68
2021/12/15 02:53:38;;;;;;;22.40;15.30;;;9.70;99.90;;;;;;5015095;28;20477;-71
2021/12/15 02:56:04;;;;;;;20.17;15.57;;;9.80;99.90;;;;;;5015046;28;20425;-69
2021/12/15 02:58:33;;;;;;;21.93;15.10;;;9.90;99.90;;;;;;5014873;28;20793;-68
2021/12/15 03:01:06;;;;;;;19.80;15.00;;;9.90;99.90;;;;;;5015222;28;20446;-68
2021/12/15 03:04:02;;;;;;;21.73;14.67;;;9.90;99.90;;;;;;5015348;28;20418;-71
2021/12/15 03:06:33;;;;;;;18.63;14.80;;;10.00;99.90;;;;;;5014309;28;20950;-69
2021/12/15 03:09:20;;;;;;;20.03;13.83;;;9.90;99.90;;;;;;5014652;28;20426;-70
2021/12/15 03:15:17;;;;;;;21.47;15.90;;;9.90;99.90;;;;;;5014695;28;20418;-69
2021/12/15 03:17:20;;;;;;;20.63;14.63;;;9.80;99.90;;;;;;5013777;28;20449;-69
2021/12/15 03:19:46;;;;;;;20.00;14.90;;;9.80;99.90;;;;;;5014792;28;20478;-68
2021/12/15 03:22:11;;;;;;;20.10;15.00;;;9.80;99.90;;;;;;5010614;28;20215;-70
2021/12/15 03:24:37;;;;;;;20.70;14.33;;;9.80;99.90;;;;;;5014497;28;20229;-69
2021/12/15 03:27:08;;;;;;;22.43;15.53;;;9.70;99.90;;;;;;5013683;28;20187;-67
2021/12/15 03:35:07;;;;;;;19.10;13.83;;;9.70;99.90;;;;;;5013533;28;20425;-68
2021/12/15 03:37:36;;;;;;;18.93;14.23;;;9.70;99.90;;;;;;5012432;28;20951;-68
2021/12/15 03:40:21;;;;;;;19.60;14.23;;;9.70;99.90;;;;;;5013617;28;20553;-69
2021/12/15 03:43:01;;;;;;;19.70;14.17;;;9.80;99.90;;;;;;5012824;28;20422;-69
2021/12/15 03:45:42;;;;;;;19.47;12.90;;;9.70;99.90;;;;;;5013639;28;20819;-69
2021/12/15 03:48:13;;;;;;;18.67;13.10;;;9.70;99.90;;;;;;5014119;28;20406;-69
2021/12/15 03:50:39;;;;;;;16.53;12.60;;;9.70;99.90;;;;;;5014046;28;20394;-68
2021/12/15 03:53:05;;;;;;;15.77;12.03;;;9.60;99.90;;;;;;5013711;28;20821;-69
2021/12/15 03:55:33;;;;;;;17.80;11.60;;;9.60;99.90;;;;;;5013134;28;20186;-68
2021/12/15 03:58:00;;;;;;;15.40;11.67;;;9.60;99.90;;;;;;5013590;28;20468;-69
2021/12/15 04:00:30;;;;;;;19.60;10.87;;;9.70;99.90;;;;;;5013652;28;20544;-70
2021/12/15 04:02:56;;;;;;;11.70;10.50;;;9.70;99.90;;;;;;5013456;28;20429;-69
2021/12/15 04:05:22;;;;;;;15.10;10.70;;;9.70;99.90;;;;;;5013113;28;20564;-69
2021/12/15 04:07:50;;;;;;;16.37;11.60;;;9.70;99.90;;;;;;5013872;28;20492;-69
2021/12/15 04:10:19;;;;;;;14.33;10.53;;;9.80;99.90;;;;;;5013622;28;20298;-70
2021/12/15 04:12:46;;;;;;;14.17;10.83;;;9.80;99.90;;;;;;5013565;28;20484;-71
2021/12/15 04:17:47;;;;;;;13.30;9.97;;;9.70;99.90;;;;;;5013740;28;20933;-69
2021/12/15 04:20:16;;;;;;;15.07;11.27;;;9.70;99.90;;;;;;5014640;28;20500;-70
2021/12/15 04:22:42;;;;;;;14.57;10.57;;;9.60;99.90;;;;;;5014509;28;20431;-69
2021/12/15 04:25:10;;;;;;;16.20;12.53;;;9.50;99.90;;;;;;5013606;28;20418;-69
2021/12/15 04:27:37;;;;;;;15.77;11.90;;;9.60;99.90;;;;;;5013309;28;20190;-68
2021/12/15 04:30:06;;;;;;;18.80;11.90;;;9.60;99.90;;;;;;5013655;28;20415;-69
2021/12/15 04:32:38;;;;;;;20.73;12.40;;;9.60;99.90;;;;;;5008781;28;20877;-69
2021/12/15 04:35:04;;;;;;;14.17;10.83;;;9.60;99.90;;;;;;5013775;28;20501;-69
2021/12/15 04:37:30;;;;;;;15.60;11.53;;;9.60;99.90;;;;;;5011739;28;20792;-69
2021/12/15 04:39:55;;;;;;;13.23;10.53;;;9.50;99.90;;;;;;5013065;28;20469;-69
2021/12/15 04:42:23;;;;;;;14.30;10.47;;;9.60;99.90;;;;;;5013157;28;20718;-69
2021/12/15 04:44:51;;;;;;;12.47;9.80;;;9.60;99.90;;;;;;5013281;28;20171;-69
2021/12/15 04:47:16;;;;;;;14.10;10.43;;;9.60;99.90;;;;;;5012966;28;20472;-69
2021/12/15 04:49:49;;;;;;;14.10;12.07;;;9.50;99.90;;;;;;5012687;28;20981;-69
2021/12/15 04:52:20;;;;;;;14.40;10.57;;;9.50;99.90;;;;;;5012485;28;20349;-69
2021/12/15 04:54:46;;;;;;;12.97;9.70;;;9.60;99.90;;;;;;5030117;28;20563;-69
2021/12/15 04:57:14;;;;;;;11.20;10.00;;;9.60;99.90;;;;;;5023733;28;20463;-69
2021/12/15 04:59:40;;;;;;;10.20;8.93;;;9.60;99.90;;;;;;5019239;28;20441;-69
2021/12/15 05:02:07;;;;;;;9.73;8.80;;;9.60;99.90;;;;;;5011840;28;20446;-69
2021/12/15 05:04:33;;;;;;;11.00;9.03;;;9.60;99.90;;;;;;5011052;28;20529;-69
2021/12/15 05:06:58;;;;;;;9.87;8.20;;;9.70;99.90;;;;;;5011832;28;20461;-69
2021/12/15 05:09:25;;;;;;;9.50;7.80;;;9.70;99.90;;;;;;5012600;28;20210;-68
2021/12/15 05:11:51;;;;;;;9.27;7.97;;;9.70;99.90;;;;;;5012398;28;20206;-70
2021/12/15 05:14:18;;;;;;;9.20;8.00;;;9.60;99.90;;;;;;5012525;28;20418;-70
2021/12/15 05:16:45;;;;;;;9.07;7.83;;;9.60;99.90;;;;;;5012254;28;20597;-69
2021/12/15 05:19:11;;;;;;;9.53;8.57;;;9.60;99.90;;;;;;5012455;28;20504;-69
2021/12/15 05:21:36;;;;;;;10.23;8.17;;;9.50;99.90;;;;;;5012395;28;20430;-69
2021/12/15 05:24:12;;;;;;;13.00;9.67;;;9.50;99.90;;;;;;5012060;28;20245;-69
2021/12/15 05:26:38;;;;;;;11.23;9.47;;;9.50;99.90;;;;;;5011879;28;20162;-70
2021/12/15 05:29:04;;;;;;;11.77;9.67;;;9.60;99.90;;;;;;5012256;28;20434;-70
2021/12/15 05:31:30;;;;;;;11.57;8.97;;;9.60;99.90;;;;;;5012115;28;20200;-69
2021/12/15 05:33:56;;;;;;;10.63;9.47;;;9.60;99.90;;;;;;5011972;28;20438;-70
2021/12/15 05:36:21;;;;;;;15.10;10.13;;;9.60;99.90;;;;;;5011394;28;20205;-69
2021/12/15 05:38:47;;;;;;;11.93;10.40;;;9.50;99.90;;;;;;5011021;28;20175;-69
2021/12/15 05:41:12;;;;;;;16.77;11.17;;;9.60;99.90;;;;;;5010290;28;20185;-69
2021/12/15 05:43:38;;;;;;;14.23;10.37;;;9.60;99.90;;;;;;5012434;28;20716;-69
2021/12/15 05:46:03;;;;;;;13.70;11.00;;;9.50;99.90;;;;;;5011923;28;20186;-69
2021/12/15 05:48:29;;;;;;;14.60;9.87;;;9.50;99.90;;;;;;5011710;28;20207;-70
2021/12/15 05:50:55;;;;;;;15.07;10.27;;;9.60;99.90;;;;;;5011358;28;20216;-69
2021/12/15 05:53:22;;;;;;;16.17;11.23;;;9.60;99.90;;;;;;5010731;28;20219;-70
2021/12/15 05:55:48;;;;;;;15.37;11.20;;;9.60;99.90;;;;;;5005684;28;20418;-70
2021/12/15 05:58:14;;;;;;;13.80;11.43;;;9.70;99.90;;;;;;5010321;28;20432;-69
2021/12/15 06:00:42;;;;;;;15.90;11.93;;;9.60;99.90;;;;;;5010702;28;20462;-69
2021/12/15 06:03:08;;;;;;;16.50;12.07;;;9.60;99.90;;;;;;5005492;28;20207;-69
2021/12/15 06:05:34;;;;;;;14.07;10.37;;;9.60;99.90;;;;;;5001331;28;20502;-69
2021/12/15 06:08:00;;;;;;;17.40;11.30;;;9.60;99.90;;;;;;5009628;28;20334;-69
2021/12/15 06:10:28;;;;;;;14.77;11.57;;;9.50;99.90;;;;;;5011896;28;20938;-69
2021/12/15 06:12:56;;;;;;;13.93;11.20;;;9.50;99.90;;;;;;5011655;28;20203;-68
2021/12/15 06:15:24;;;;;;;14.27;10.60;;;9.50;99.90;;;;;;5008894;28;20438;-68
2021/12/15 06:18:04;;;;;;;14.17;11.13;;;9.50;99.90;;;;;;5010327;28;20513;-68
2021/12/15 06:20:31;;;;;;;13.93;10.27;;;9.50;99.90;;;;;;5010163;28;20464;-67
2021/12/15 06:22:59;;;;;;;13.70;10.67;;;9.50;99.90;;;;;;5012053;28;20519;-69
2021/12/15 06:25:26;;;;;;;15.10;11.53;;;9.60;99.90;;;;;;5009200;28;20430;-69
2021/12/15 06:27:52;;;;;;;14.10;10.67;;;9.70;99.90;;;;;;5011434;28;20452;-69
2021/12/15 06:30:17;;;;;;;15.73;11.50;;;9.60;99.90;;;;;;5010712;28;20426;-70
2021/12/15 06:32:43;;;;;;;15.33;10.70;;;9.60;99.90;;;;;;5011627;28;20206;-71
2021/12/15 06:35:10;;;;;;;13.80;10.80;;;9.60;99.90;;;;;;5014271;28;20187;-69
2021/12/15 06:37:36;;;;;;;13.30;9.87;;;9.60;99.90;;;;;;5007652;28;20804;-70
2021/12/15 06:40:07;;;;;;;14.60;11.30;;;9.60;99.90;;;;;;5013407;28;20547;-71
2021/12/15 06:42:35;;;;;;;13.93;10.90;;;9.60;99.90;;;;;;5034215;28;20504;-68
2021/12/15 06:45:00;;;;;;;15.50;11.33;;;9.60;99.90;;;;;;5033074;28;20475;-70
2021/12/15 06:57:15;;;;;;;14.10;10.63;;;9.60;99.90;;;;;;5033608;28;20495;-69
2021/12/15 06:58:33;;;;;;;12.70;9.70;;;9.80;99.90;;;;;;5008040;28;20434;-68
2021/12/15 07:01:00;;;;;;;14.23;10.03;;;9.80;99.90;;;;;;5015164;28;20461;-69
2021/12/15 07:03:26;;;;;;;13.17;9.57;;;9.70;99.90;;;;;;5015405;28;20215;-69
2021/12/15 07:05:55;;;;;;;12.80;9.27;;;9.70;99.90;;;;;;5015813;28;20437;-69
2021/12/15 07:08:21;;;;;;;12.50;9.70;;;9.80;99.90;;;;;;5015561;28;20206;-71
2021/12/15 07:10:49;;;;;;;12.13;9.20;;;9.80;99.90;;;;;;5016243;28;20500;-70
2021/12/15 07:13:16;;;;;;;11.20;8.77;;;9.80;99.90;;;;;;5012018;28;20467;-69
2021/12/15 07:15:44;;;;;;;11.90;8.07;;;9.80;99.90;;;;;;5011167;28;20442;-71
2021/12/15 07:18:12;;;;;;;13.27;8.90;;;9.80;99.90;;;;;;5013687;28;20469;-71
2021/12/15 07:20:49;;;;;;;12.93;9.53;;;9.80;99.90;;;;;;5010797;28;20472;-68
2021/12/15 07:23:20;;;;;;;11.30;8.83;;;9.90;99.90;;;;;;5008474;28;20465;-69
2021/12/15 07:25:48;;;;;;;14.33;10.60;;;9.90;99.90;;;;;;5009795;28;20437;-67
2021/12/15 07:28:15;;;;;;;12.97;9.27;;;9.90;99.90;;;;;;4995797;28;20460;-68
2021/12/15 07:30:42;;;;;;;15.97;11.30;;;9.90;99.90;;;;;;5011826;28;20446;-69
2021/12/15 07:33:08;;;;;;;14.43;10.43;;;9.90;99.90;;;;;;5011017;28;20504;-70
2021/12/15 07:35:35;;;;;;;16.20;11.60;;;9.90;99.90;;;;;;5011656;28;20503;-69
2021/12/15 07:38:01;;;;;;;15.23;10.50;;;9.80;99.90;;;;;;5010521;28;20868;-69
2021/12/15 07:40:27;;;;;;;14.60;11.20;;;9.80;99.90;;;;;;5011375;28;20501;-70
2021/12/15 07:43:09;;;;;;;18.60;12.33;;;9.80;99.90;;;;;;5011349;28;20279;-68
2021/12/15 07:45:41;;;;;;;14.80;11.70;;;9.80;99.90;;;;;;4993510;28;20975;-67
2021/12/15 07:48:10;;;;;;;16.80;11.50;;;9.80;99.90;;;;;;5008308;28;20536;-69
2021/12/15 07:50:37;;;;;;;15.50;12.03;;;9.90;99.90;;;;;;5005384;28;20419;-70
2021/12/15 07:53:04;;;;;;;18.70;12.87;;;9.80;99.90;;;;;;5011458;28;20454;-69
2021/12/15 07:55:30;;;;;;;17.07;11.90;;;9.90;99.90;;;;;;5007582;28;20430;-69
2021/12/15 07:57:56;;;;;;;14.10;10.93;;;9.90;99.90;;;;;;5007329;28;20418;-71
2021/12/15 08:00:22;;;;;;;15.57;11.10;;;9.90;99.90;;;;;;5010655;28;20536;-70
2021/12/15 08:02:48;;;;;;;14.27;10.20;;;9.90;99.90;;;;;;5005296;28;20207;-70
2021/12/15 08:05:14;;;;;;;14.07;10.50;;;9.90;99.90;;;;;;5009868;28;20426;-70
2021/12/15 08:07:40;;;;;;;13.70;10.50;;;9.90;99.90;;;;;;5009815;28;20190;-69
2021/12/15 08:10:10;;;;;;;13.23;9.73;;;9.90;99.90;;;;;;5007363;28;20491;-70
2021/12/15 08:12:36;;;;;;;12.03;8.40;;;9.90;99.90;;;;;;5011271;28;20210;-69
2021/12/15 08:15:04;;;;;;;12.90;9.73;;;9.90;99.90;;;;;;5006333;28;20778;-69
2021/12/15 08:17:29;;;;;;;11.23;9.47;;;10.00;99.90;;;;;;5011133;28;20982;-68
2021/12/15 08:19:55;;;;;;;13.30;9.60;;;10.00;99.90;;;;;;5007921;28;20477;-69
2021/12/15 08:22:20;;;;;;;13.40;10.00;;;10.00;99.90;;;;;;5009317;28;20203;-68
2021/12/15 08:24:46;;;;;;;15.33;13.17;;;10.00;99.90;;;;;;5016761;28;20342;-69
2021/12/15 08:27:12;;;;;;;14.60;11.53;;;10.00;99.90;;;;;;5011684;28;20195;-69
2021/12/15 08:29:37;;;;;;;14.27;10.83;;;10.00;99.90;;;;;;5013981;28;20203;-69
2021/12/15 08:32:04;;;;;;;14.23;10.93;;;10.00;99.90;;;;;;5012490;28;20301;-68
2021/12/15 08:34:29;;;;;;;15.37;11.70;;;10.00;99.90;;;;;;5010434;28;20183;-70
2021/12/15 08:36:55;;;;;;;16.60;12.00;;;10.00;99.90;;;;;;4993295;28;20455;-72
2021/12/15 08:39:20;;;;;;;15.17;11.43;;;10.00;99.90;;;;;;5012518;28;20288;-70
2021/12/15 08:41:46;;;;;;;15.27;11.90;;;10.10;99.90;;;;;;5013125;28;20206;-70
2021/12/15 08:44:12;;;;;;;19.20;14.20;;;10.10;99.90;;;;;;5008248;28;20191;-71
2021/12/15 08:46:42;;;;;;;18.00;13.00;;;10.10;99.90;;;;;;5009037;28;20188;-71
2021/12/15 08:49:12;;;;;;;18.27;13.83;;;10.10;99.90;;;;;;5017647;28;20190;-70
2021/12/15 08:51:38;;;;;;;18.53;13.73;;;10.10;99.90;;;;;;5022725;28;20466;-69
2021/12/15 08:54:08;;;;;;;22.10;13.67;;;10.10;99.90;;;;;;5020602;28;20484;-70
2021/12/15 08:56:35;;;;;;;19.07;14.00;;;10.10;99.90;;;;;;5013929;28;20180;-71
2021/12/15 08:59:02;;;;;;;20.33;14.77;;;10.10;99.90;;;;;;5012469;28;21093;-69
2021/12/15 09:01:28;;;;;;;18.20;13.90;;;10.10;99.90;;;;;;5009504;28;20532;-70
2021/12/15 09:03:54;;;;;;;17.83;14.37;;;10.10;99.90;;;;;;5004922;28;20573;-68
2021/12/15 09:06:20;;;;;;;19.63;14.33;;;10.10;99.90;;;;;;5006373;28;20704;-69
2021/12/15 09:08:46;;;;;;;20.77;15.73;;;10.10;99.90;;;;;;5006642;28;20513;-68
2021/12/15 09:11:15;;;;;;;20.50;15.07;;;10.10;99.90;;;;;;5006032;28;20414;-69
2021/12/15 09:13:43;;;;;;;22.50;15.10;;;10.10;99.90;;;;;;5003726;28;20434;-68
2021/12/15 09:16:10;;;;;;;18.03;14.20;;;10.10;99.90;;;;;;5010797;28;20971;-69
2021/12/15 09:18:38;;;;;;;19.10;15.47;;;10.20;99.90;;;;;;5022884;28;20508;-68
2021/12/15 09:21:05;;;;;;;17.90;14.67;;;10.10;99.90;;;;;;5029806;28;20527;-68
2021/12/15 09:23:31;;;;;;;20.10;14.33;;;10.10;99.90;;;;;;5012219;28;20962;-69
2021/12/15 09:25:57;;;;;;;16.53;13.67;;;10.10;99.90;;;;;;5009846;28;20427;-69
2021/12/15 09:28:25;;;;;;;22.93;15.27;;;10.10;99.90;;;;;;5008487;28;20175;-68
2021/12/15 09:30:52;;;;;;;17.53;14.10;;;10.20;99.90;;;;;;5009529;28;20425;-69
2021/12/15 09:33:22;;;;;;;21.47;15.20;;;10.20;99.90;;;;;;5009108;28;20537;-68
2021/12/15 09:35:48;;;;;;;21.60;15.53;;;10.20;99.90;;;;;;5009415;28;20449;-69
2021/12/15 09:38:15;;;;;;;19.17;14.57;;;10.10;99.90;;;;;;5010013;28;21184;-71
2021/12/15 09:40:41;;;;;;;19.57;14.67;;;10.10;99.90;;;;;;5009968;28;20480;-69
2021/12/15 09:43:09;;;;;;;19.97;15.70;;;10.10;99.90;;;;;;5013616;28;20429;-69
2021/12/15 10:06:50;;;;;;;21.40;16.17;;;10.10;99.90;;;;;;5012113;28;20997;-69
2021/12/15 10:12:25;;;;;;;25.70;17.80;;;10.10;99.90;;;;;;5012042;28;20531;-69
2021/12/15 10:18:00;;;;;;;21.40;16.10;;;10.20;99.90;;;;;;5015471;28;20482;-68
2021/12/15 10:20:27;;;;;;;20.30;15.93;;;10.30;99.90;;;;;;4998273;28;20457;-69
2021/12/15 10:22:59;;;;;;;23.80;17.00;;;10.20;99.90;;;;;;5021798;28;20437;-68
2021/12/15 10:25:29;;;;;;;17.87;15.43;;;10.30;99.90;;;;;;5020123;28;20524;-69
2021/12/15 10:28:04;;;;;;;22.40;16.70;;;10.30;99.90;;;;;;5012276;28;20438;-67
2021/12/15 10:30:32;;;;;;;20.93;16.37;;;10.30;99.90;;;;;;5012661;28;20517;-69
2021/12/15 10:33:12;;;;;;;17.87;14.77;;;10.30;99.90;;;;;;5012921;28;20501;-68
2021/12/15 10:35:39;;;;;;;20.73;15.83;;;10.20;99.90;;;;;;5012226;28;20429;-68
2021/12/15 10:38:27;;;;;;;21.27;15.87;;;10.20;99.90;;;;;;5012477;28;20434;-69
2021/12/15 10:40:58;;;;;;;16.73;14.20;;;10.20;99.90;;;;;;5012680;28;20894;-70
2021/12/15 10:43:30;;;;;;;18.80;15.93;;;10.10;99.90;;;;;;5012425;28;20434;-70
2021/12/15 10:46:04;;;;;;;20.20;14.97;;;10.10;99.90;;;;;;5013016;28;20426;-69
2021/12/15 10:48:40;;;;;;;19.10;15.27;;;10.10;99.90;;;;;;5012773;28;20497;-69
2021/12/15 10:52:00;;;;;;;21.13;14.87;;;10.20;99.90;;;;;;5012646;28;20422;-70
2021/12/15 10:54:29;;;;;;;17.73;13.83;;;10.20;99.90;;;;;;4954340;28;20432;-69
2021/12/15 10:56:56;;;;;;;18.63;14.03;;;10.20;99.90;;;;;;4970931;28;20972;-70
2021/12/15 10:59:25;;;;;;;22.60;16.40;;;10.30;99.90;;;;;;4953636;28;20469;-69
2021/12/15 11:02:13;;;;;;;19.67;15.10;;;10.30;99.90;;;;;;4968601;28;20459;-69
2021/12/15 11:04:49;;;;;;;19.20;14.53;;;10.30;99.90;;;;;;4969721;28;20428;-67
2021/12/15 11:07:36;;;;;;;17.50;13.40;;;10.20;99.90;;;;;;4970149;28;20451;-69
2021/12/15 11:10:06;;;;;;;20.00;15.70;;;10.10;99.90;;;;;;4964457;28;20483;-68
2021/12/15 11:12:44;;;;;;;21.27;15.70;;;10.10;99.90;;;;;;4963839;28;20523;-69
2021/12/15 11:15:29;;;;;;;22.27;16.50;;;10.20;99.90;;;;;;4969108;28;20526;-70
2021/12/15 11:18:22;;;;;;;21.13;16.80;;;10.30;99.90;;;;;;4969708;28;20956;-70
2021/12/15 11:20:50;;;;;;;20.80;15.87;;;10.30;99.90;;;;;;4969518;28;20646;-71
2021/12/15 11:23:17;;;;;;;20.57;15.63;;;10.30;99.90;;;;;;4967484;28;20824;-70
2021/12/15 11:25:49;;;;;;;20.40;16.20;;;10.20;99.90;;;;;;5002189;28;20516;-70
2021/12/15 11:28:17;;;;;;;19.33;15.60;;;10.20;99.90;;;;;;5007169;28;20426;-69
2021/12/15 11:31:11;;;;;;;22.63;15.80;;;10.20;99.90;;;;;;5011713;28;20453;-71
2021/12/15 11:33:44;;;;;;;23.10;16.00;;;10.10;99.90;;;;;;5012890;28;20442;-71
2021/12/15 11:36:13;;;;;;;18.73;15.17;;;10.10;99.90;;;;;;5012533;28;20480;-71
2021/12/15 11:38:48;;;;;;;19.57;15.67;;;10.00;99.90;;;;;;5010621;28;20430;-71
2021/12/15 11:41:19;;;;;;;20.67;15.97;;;10.10;99.90;;;;;;5011850;28;20458;-71
2021/12/15 11:43:52;;;;;;;19.40;15.60;;;10.10;99.90;;;;;;5012713;28;20423;-71
2021/12/15 11:46:27;;;;;;;21.27;17.40;;;10.20;99.90;;;;;;5001011;28;20864;-70
2021/12/15 11:49:04;;;;;;;20.87;16.10;;;10.30;99.90;;;;;;5008657;28;20442;-71
2021/12/15 11:51:34;;;;;;;18.43;15.13;;;10.30;99.90;;;;;;5009457;28;20477;-72
2021/12/15 11:54:01;;;;;;;21.00;16.20;;;10.30;99.90;;;;;;5009316;28;20449;-70
2021/12/15 11:56:32;;;;;;;16.47;14.73;;;10.30;99.90;;;;;;5007880;28;20473;-69
2021/12/15 11:59:19;;;;;;;21.30;16.00;;;10.20;99.90;;;;;;5009168;28;20466;-70
2021/12/15 12:01:52;;;;;;;22.17;17.07;;;10.20;99.90;;;;;;5009030;28;20472;-72
2021/12/15 12:04:35;;;;;;;21.13;15.43;;;10.30;99.90;;;;;;5009057;28;20430;-71
2021/12/15 12:07:22;;;;;;;18.67;15.70;;;10.30;99.90;;;;;;5000668;28;20440;-71
2021/12/15 12:10:11;;;;;;;21.20;16.27;;;10.40;99.90;;;;;;5010704;28;20457;-71
2021/12/15 12:12:47;;;;;;;21.13;16.57;;;10.30;99.90;;;;;;5009574;28;20453;-69
2021/12/15 12:15:14;;;;;;;22.37;17.07;;;10.30;99.90;;;;;;5009731;28;22039;-71
2021/12/15 12:17:44;;;;;;;20.27;16.40;;;10.30;99.90;;;;;;5015152;28;20460;-71
2021/12/15 12:20:19;;;;;;;21.57;16.87;;;10.20;99.90;;;;;;4997661;28;20480;-70
2021/12/15 12:22:46;;;;;;;21.83;16.30;;;10.20;99.90;;;;;;5010474;28;20437;-70
2021/12/15 12:25:29;;;;;;;18.20;14.90;;;10.20;99.90;;;;;;5010088;28;20422;-71
2021/12/15 12:27:56;;;;;;;20.43;16.07;;;10.20;99.90;;;;;;5009257;28;20426;-71
2021/12/15 12:30:29;;;;;;;19.60;15.90;;;10.30;99.90;;;;;;5009993;28;20426;-71
2021/12/15 12:32:56;;;;;;;20.77;17.00;;;10.30;99.90;;;;;;5009384;28;20864;-71
2021/12/15 12:35:29;;;;;;;18.83;16.07;;;10.20;99.90;;;;;;5009921;28;21057;-70
2021/12/15 12:38:02;;;;;;;20.70;17.00;;;10.20;99.90;;;;;;5010807;28;20964;-72
2021/12/15 12:40:34;;;;;;;19.77;15.93;;;10.10;99.90;;;;;;5012174;28;21018;-71
2021/12/15 12:43:26;;;;;;;20.87;16.73;;;10.20;99.90;;;;;;5006837;28;20540;-71
2021/12/15 12:45:59;;;;;;;19.83;16.80;;;10.20;99.90;;;;;;5008551;28;20434;-71
2021/12/15 12:48:37;;;;;;;22.27;18.40;;;10.30;99.90;;;;;;5009714;28;20421;-70
2021/12/15 12:59:43;;;;;;;20.60;17.00;;;10.30;99.90;;;;;;5009582;28;20504;-71
2021/12/15 13:02:50;;;;;;;21.50;17.70;;;10.30;99.90;;;;;;5015241;28;20892;-71
2021/12/15 13:05:48;;;;;;;20.80;16.87;;;10.20;99.90;;;;;;5016143;28;20417;-71
2021/12/15 13:08:15;;;;;;;20.10;17.00;;;10.30;99.90;;;;;;5010900;28;20422;-71
2021/12/15 13:11:01;;;;;;;20.90;17.43;;;10.30;99.90;;;;;;4997507;28;20979;-71
2021/12/15 13:13:31;;;;;;;23.30;17.60;;;10.30;99.90;;;;;;5008243;28;20569;-71
2021/12/15 13:16:07;;;;;;;23.70;17.50;;;10.30;99.90;;;;;;5011554;28;20512;-71
2021/12/15 13:18:49;;;;;;;22.60;17.70;;;10.30;99.90;;;;;;5024609;28;20504;-71
2021/12/15 13:21:18;;;;;;;21.07;16.67;;;10.30;99.90;;;;;;5031607;28;20817;-71
2021/12/15 13:23:59;;;;;;;25.48;21.85;;;10.30;99.90;;;;;;5030654;28;20405;-71
2021/12/15 13:29:51;;;;;;;26.03;20.00;;;10.30;99.90;;;;;;4989768;28;20473;-71
2021/12/15 13:32:18;;;;;;;24.42;21.83;;;10.40;99.90;;;;;;4973710;28;20425;-70
2021/12/15 13:34:48;;;;;;;21.13;18.17;;;10.40;99.90;;;;;;4970699;28;20184;-71
2021/12/15 13:37:52;;;;;;;22.60;17.53;;;10.40;99.90;;;;;;4970239;28;20401;-72
2021/12/15 13:40:57;;;;;;;22.83;18.30;;;10.40;99.90;;;;;;4970290;28;20464;-71
2021/12/15 13:43:54;;;;;;;21.87;18.43;;;10.40;99.90;;;;;;4934895;28;20994;-71
2021/12/15 13:46:30;;;;;;;25.70;18.57;;;10.50;99.90;;;;;;4950807;28;20416;-71
2021/12/15 13:49:19;;;;;;;22.30;17.90;;;10.50;99.90;;;;;;4984816;28;20766;-71
2021/12/15 13:52:02;;;;;;;22.67;18.90;;;10.50;99.90;;;;;;4987848;28;20472;-71
2021/12/15 13:54:34;;;;;;;23.83;17.40;;;10.50;99.90;;;;;;4978807;28;20512;-71
2021/12/15 13:57:11;;;;;;;23.83;18.33;;;10.40;99.90;;;;;;4985659;28;20423;-71
2021/12/15 13:59:44;;;;;;;22.07;17.23;;;10.40;99.90;;;;;;4992149;28;20454;-72
2021/12/15 14:02:09;;;;;;;21.20;16.43;;;10.40;99.90;;;;;;5012027;28;20808;-71
2021/12/15 14:04:46;;;;;;;24.20;17.07;;;10.40;99.90;;;;;;5012699;28;20407;-71
2021/12/15 14:07:36;;;;;;;20.83;17.17;;;10.40;99.90;;;;;;5012103;28;20187;-71